sensor_id;sensor_type;location;lat;lon;timestamp;pressure;altitude;pressure_sealevel;temperature;humidity
80712;BME280;70078;51.596;5.678;2023-07-22T00:01:31;101271.28;;;15.57;67.57
80712;BME280;70078;51.596;5.678;2023-07-22T00:03:57;101287.88;;;15.61;67.53
80712;BME280;70078;51.596;5.678;2023-07-22T00:06:23;101281.59;;;15.53;67.79
80712;BME280;70078;51.596;5.678;2023-07-22T00:08:49;101276.31;;;15.45;67.74
80712;BME280;70078;51.596;5.678;2023-07-22T00:11:15;101290.03;;;15.50;68.13
80712;BME280;70078;51.596;5.678;2023-07-22T00:13:40;101297.09;;;15.51;68.17
80712;BME280;70078;51.596;5.678;2023-07-22T00:16:05;101289.75;;;15.45;68.22
80712;BME280;70078;51.596;5.678;2023-07-22T00:18:33;101296.63;;;15.48;68.48
80712;BME280;70078;51.596;5.678;2023-07-22T00:20:59;101287.72;;;15.47;68.21
80712;BME280;70078;51.596;5.678;2023-07-22T00:23:24;101286.44;;;15.43;68.73
80712;BME280;70078;51.596;5.678;2023-07-22T00:25:50;101266.03;;;15.34;68.57
80712;BME280;70078;51.596;5.678;2023-07-22T00:28:16;101271.03;;;15.37;68.17
80712;BME280;70078;51.596;5.678;2023-07-22T00:30:42;101275.38;;;15.38;68.08
80712;BME280;70078;51.596;5.678;2023-07-22T00:33:08;101278.91;;;15.39;68.54
80712;BME280;70078;51.596;5.678;2023-07-22T00:35:34;101264.28;;;15.26;68.60
80712;BME280;70078;51.596;5.678;2023-07-22T00:38:00;101285.75;;;15.41;68.82
80712;BME280;70078;51.596;5.678;2023-07-22T00:40:26;101262.59;;;15.25;69.04
80712;BME280;70078;51.596;5.678;2023-07-22T00:42:51;101268.72;;;15.34;68.53
80712;BME280;70078;51.596;5.678;2023-07-22T00:45:17;101289.75;;;15.45;68.70
80712;BME280;70078;51.596;5.678;2023-07-22T00:47:44;101260.91;;;15.39;68.71
80712;BME280;70078;51.596;5.678;2023-07-22T00:50:09;101287.28;;;15.44;68.82
80712;BME280;70078;51.596;5.678;2023-07-22T00:52:35;101274.75;;;15.36;68.87
80712;BME280;70078;51.596;5.678;2023-07-22T00:55:02;101270.75;;;15.32;69.15
80712;BME280;70078;51.596;5.678;2023-07-22T00:57:27;101261.84;;;15.32;69.11
80712;BME280;70078;51.596;5.678;2023-07-22T00:59:54;101264.63;;;15.38;69.59
80712;BME280;70078;51.596;5.678;2023-07-22T01:02:20;101282.53;;;15.46;70.20
80712;BME280;70078;51.596;5.678;2023-07-22T01:04:46;101255.28;;;15.34;70.47
80712;BME280;70078;51.596;5.678;2023-07-22T01:07:12;101283.75;;;15.43;70.92
80712;BME280;70078;51.596;5.678;2023-07-22T01:09:39;101254.72;;;15.24;71.64
80712;BME280;70078;51.596;5.678;2023-07-22T01:12:05;101272.31;;;15.41;71.87
80712;BME280;70078;51.596;5.678;2023-07-22T01:14:35;101252.59;;;15.34;71.42
80712;BME280;70078;51.596;5.678;2023-07-22T01:17:06;101258.63;;;15.36;71.25
80712;BME280;70078;51.596;5.678;2023-07-22T01:19:33;101257.50;;;15.31;71.63
80712;BME280;70078;51.596;5.678;2023-07-22T01:22:00;101271.13;;;15.44;71.50
80712;BME280;70078;51.596;5.678;2023-07-22T01:24:27;101265.28;;;15.40;71.66
80712;BME280;70078;51.596;5.678;2023-07-22T01:26:53;101247.22;;;15.34;71.63
80712;BME280;70078;51.596;5.678;2023-07-22T01:29:18;101270.50;;;15.42;71.86
80712;BME280;70078;51.596;5.678;2023-07-22T01:31:47;101268.78;;;15.41;71.98
80712;BME280;70078;51.596;5.678;2023-07-22T01:34:12;101268.25;;;15.45;71.30
80712;BME280;70078;51.596;5.678;2023-07-22T01:36:38;101251.00;;;15.25;71.63
80712;BME280;70078;51.596;5.678;2023-07-22T01:39:03;101257.59;;;15.37;71.32
80712;BME280;70078;51.596;5.678;2023-07-22T01:41:31;101208.19;;;15.09;71.37
80712;BME280;70078;51.596;5.678;2023-07-22T01:43:56;101236.44;;;15.34;71.24
80712;BME280;70078;51.596;5.678;2023-07-22T01:46:21;101235.16;;;15.30;71.23
80712;BME280;70078;51.596;5.678;2023-07-22T01:48:47;101220.78;;;15.23;70.97
80712;BME280;70078;51.596;5.678;2023-07-22T01:51:12;101247.09;;;15.42;71.21
80712;BME280;70078;51.596;5.678;2023-07-22T01:53:37;101205.38;;;15.17;70.74
80712;BME280;70078;51.596;5.678;2023-07-22T01:56:03;101226.25;;;15.30;70.79
80712;BME280;70078;51.596;5.678;2023-07-22T01:58:30;101231.72;;;15.21;71.33
80712;BME280;70078;51.596;5.678;2023-07-22T02:00:55;101242.28;;;15.23;71.54
80712;BME280;70078;51.596;5.678;2023-07-22T02:03:21;101252.59;;;15.34;71.69
80712;BME280;70078;51.596;5.678;2023-07-22T02:05:46;101228.38;;;15.34;70.97
80712;BME280;70078;51.596;5.678;2023-07-22T02:08:11;101226.16;;;15.23;71.04
80712;BME280;70078;51.596;5.678;2023-07-22T02:10:37;101253.41;;;15.35;70.89
80712;BME280;70078;51.596;5.678;2023-07-22T02:13:02;101247.97;;;15.28;71.49
80712;BME280;70078;51.596;5.678;2023-07-22T02:15:30;101243.50;;;15.20;71.63
80712;BME280;70078;51.596;5.678;2023-07-22T02:17:55;101235.63;;;15.19;71.40
80712;BME280;70078;51.596;5.678;2023-07-22T02:20:21;101245.25;;;15.28;71.42
80712;BME280;70078;51.596;5.678;2023-07-22T02:22:47;101233.00;;;15.11;71.48
80712;BME280;70078;51.596;5.678;2023-07-22T02:25:13;101249.34;;;15.24;71.26
80712;BME280;70078;51.596;5.678;2023-07-22T02:27:40;101248.06;;;15.20;71.63
80712;BME280;70078;51.596;5.678;2023-07-22T02:30:07;101231.63;;;15.15;71.37
80712;BME280;70078;51.596;5.678;2023-07-22T02:32:39;101195.31;;;14.89;71.51
80712;BME280;70078;51.596;5.678;2023-07-22T02:35:09;101224.31;;;15.09;71.51
80712;BME280;70078;51.596;5.678;2023-07-22T02:37:37;101215.22;;;15.10;71.18
80712;BME280;70078;51.596;5.678;2023-07-22T02:40:03;101217.28;;;15.08;71.26
80712;BME280;70078;51.596;5.678;2023-07-22T02:42:35;101190.59;;;14.91;71.19
80712;BME280;70078;51.596;5.678;2023-07-22T02:45:02;101232.38;;;15.09;71.34
80712;BME280;70078;51.596;5.678;2023-07-22T02:47:27;101219.31;;;15.06;71.53
80712;BME280;70078;51.596;5.678;2023-07-22T02:49:53;101218.00;;;15.02;71.46
80712;BME280;70078;51.596;5.678;2023-07-22T02:52:19;101207.84;;;14.97;71.74
80712;BME280;70078;51.596;5.678;2023-07-22T02:55:04;101217.66;;;15.05;71.70
80712;BME280;70078;51.596;5.678;2023-07-22T02:57:29;101217.06;;;15.09;71.16
80712;BME280;70078;51.596;5.678;2023-07-22T02:59:56;101231.84;;;15.13;71.09
80712;BME280;70078;51.596;5.678;2023-07-22T03:02:21;101230.16;;;15.12;71.30
80712;BME280;70078;51.596;5.678;2023-07-22T03:04:46;101234.88;;;15.10;71.22
80712;BME280;70078;51.596;5.678;2023-07-22T03:07:12;101236.47;;;15.05;71.34
80712;BME280;70078;51.596;5.678;2023-07-22T03:09:37;101192.44;;;14.76;71.34
80712;BME280;70078;51.596;5.678;2023-07-22T03:12:03;101234.88;;;14.95;71.21
80712;BME280;70078;51.596;5.678;2023-07-22T03:14:28;101228.66;;;14.80;71.34
80712;BME280;70078;51.596;5.678;2023-07-22T03:16:54;101239.69;;;14.85;71.40
80712;BME280;70078;51.596;5.678;2023-07-22T03:19:19;101205.03;;;14.61;71.64
80712;BME280;70078;51.596;5.678;2023-07-22T03:21:44;101237.09;;;14.77;71.63
80712;BME280;70078;51.596;5.678;2023-07-22T03:24:10;101228.56;;;14.59;71.54
80712;BME280;70078;51.596;5.678;2023-07-22T03:26:35;101231.59;;;14.56;72.03
80712;BME280;70078;51.596;5.678;2023-07-22T03:29:01;101252.06;;;14.57;71.88
80712;BME280;70078;51.596;5.678;2023-07-22T03:31:26;101216.34;;;14.33;72.00
80712;BME280;70078;51.596;5.678;2023-07-22T03:33:51;101248.16;;;14.44;72.25
80712;BME280;70078;51.596;5.678;2023-07-22T03:36:17;101213.06;;;14.23;72.36
80712;BME280;70078;51.596;5.678;2023-07-22T03:38:42;101255.91;;;14.39;72.01
80712;BME280;70078;51.596;5.678;2023-07-22T03:41:08;101231.94;;;14.15;72.22
80712;BME280;70078;51.596;5.678;2023-07-22T03:43:33;101253.66;;;14.28;72.51
80712;BME280;70078;51.596;5.678;2023-07-22T03:45:59;101228.97;;;14.10;72.36
80712;BME280;70078;51.596;5.678;2023-07-22T03:48:24;101231.28;;;14.13;72.41
80712;BME280;70078;51.596;5.678;2023-07-22T03:50:49;101239.69;;;14.10;72.36
80712;BME280;70078;51.596;5.678;2023-07-22T03:53:15;101224.84;;;13.99;72.47
80712;BME280;70078;51.596;5.678;2023-07-22T03:55:41;101259.44;;;14.17;72.66
80712;BME280;70078;51.596;5.678;2023-07-22T03:58:06;101248.41;;;14.12;73.21
80712;BME280;70078;51.596;5.678;2023-07-22T04:00:31;101248.19;;;13.99;73.66
80712;BME280;70078;51.596;5.678;2023-07-22T04:02:57;101255.56;;;13.97;74.20
80712;BME280;70078;51.596;5.678;2023-07-22T04:05:22;101230.50;;;13.81;74.26
80712;BME280;70078;51.596;5.678;2023-07-22T04:07:47;101217.84;;;13.67;74.55
80712;BME280;70078;51.596;5.678;2023-07-22T04:10:13;101222.22;;;13.68;74.38
80712;BME280;70078;51.596;5.678;2023-07-22T04:12:38;101244.34;;;13.70;74.95
80712;BME280;70078;51.596;5.678;2023-07-22T04:15:03;101255.84;;;13.79;74.71
80712;BME280;70078;51.596;5.678;2023-07-22T04:17:29;101233.94;;;13.67;74.90
80712;BME280;70078;51.596;5.678;2023-07-22T04:19:54;101203.88;;;13.49;75.10
80712;BME280;70078;51.596;5.678;2023-07-22T04:22:21;101239.31;;;13.67;75.02
80712;BME280;70078;51.596;5.678;2023-07-22T04:24:46;101256.88;;;13.78;75.27
80712;BME280;70078;51.596;5.678;2023-07-22T04:27:14;101260.56;;;13.77;74.84
80712;BME280;70078;51.596;5.678;2023-07-22T04:29:40;101251.50;;;13.78;75.38
80712;BME280;70078;51.596;5.678;2023-07-22T04:32:07;101256.31;;;13.82;74.82
80712;BME280;70078;51.596;5.678;2023-07-22T04:34:33;101246.59;;;13.81;74.86
80712;BME280;70078;51.596;5.678;2023-07-22T04:36:59;101212.00;;;13.64;75.04
80712;BME280;70078;51.596;5.678;2023-07-22T04:39:24;101193.19;;;13.41;75.20
80712;BME280;70078;51.596;5.678;2023-07-22T04:41:50;101250.31;;;13.80;75.20
80712;BME280;70078;51.596;5.678;2023-07-22T04:44:17;101264.50;;;13.89;75.53
80712;BME280;70078;51.596;5.678;2023-07-22T04:46:43;101252.09;;;13.88;75.13
80712;BME280;70078;51.596;5.678;2023-07-22T04:49:08;101225.75;;;13.69;75.26
80712;BME280;70078;51.596;5.678;2023-07-22T04:51:33;101178.41;;;13.45;74.92
80712;BME280;70078;51.596;5.678;2023-07-22T04:53:59;101256.25;;;13.99;75.30
80712;BME280;70078;51.596;5.678;2023-07-22T04:56:24;101250.94;;;13.91;75.10
80712;BME280;70078;51.596;5.678;2023-07-22T04:58:49;101270.13;;;14.02;75.28
80712;BME280;70078;51.596;5.678;2023-07-22T05:01:15;101249.34;;;13.96;75.45
80712;BME280;70078;51.596;5.678;2023-07-22T05:03:41;101244.47;;;14.00;75.58
80712;BME280;70078;51.596;5.678;2023-07-22T05:06:06;101241.25;;;14.04;75.44
80712;BME280;70078;51.596;5.678;2023-07-22T05:08:31;101259.75;;;14.22;75.54
80712;BME280;70078;51.596;5.678;2023-07-22T05:10:57;101244.28;;;14.24;75.42
80712;BME280;70078;51.596;5.678;2023-07-22T05:13:22;101247.72;;;14.33;75.04
80712;BME280;70078;51.596;5.678;2023-07-22T05:15:47;101246.81;;;14.40;75.23
80712;BME280;70078;51.596;5.678;2023-07-22T05:18:13;101249.28;;;14.50;75.23
80712;BME280;70078;51.596;5.678;2023-07-22T05:20:38;101242.09;;;14.42;75.33
80712;BME280;70078;51.596;5.678;2023-07-22T05:23:04;101268.16;;;14.80;75.40
80712;BME280;70078;51.596;5.678;2023-07-22T05:25:30;101243.47;;;14.61;75.68
80712;BME280;70078;51.596;5.678;2023-07-22T05:27:55;101270.84;;;14.94;74.91
80712;BME280;70078;51.596;5.678;2023-07-22T05:30:20;101257.50;;;15.01;74.16
80712;BME280;70078;51.596;5.678;2023-07-22T05:32:46;101239.41;;;14.95;74.04
80712;BME280;70078;51.596;5.678;2023-07-22T05:35:11;101272.81;;;15.15;74.48
80712;BME280;70078;51.596;5.678;2023-07-22T05:37:36;101249.53;;;15.08;74.90
80712;BME280;70078;51.596;5.678;2023-07-22T05:40:02;101265.13;;;15.27;74.39
80712;BME280;70078;51.596;5.678;2023-07-22T05:42:28;101267.03;;;15.33;74.14
80712;BME280;70078;51.596;5.678;2023-07-22T05:44:57;101266.50;;;15.38;74.14
80712;BME280;70078;51.596;5.678;2023-07-22T05:47:23;101257.88;;;15.42;73.61
80712;BME280;70078;51.596;5.678;2023-07-22T05:49:48;101268.75;;;15.55;73.66
80712;BME280;70078;51.596;5.678;2023-07-22T05:52:14;101246.53;;;15.62;73.31
80712;BME280;70078;51.596;5.678;2023-07-22T05:54:39;101260.44;;;15.87;72.92
80712;BME280;70078;51.596;5.678;2023-07-22T05:57:05;101242.72;;;15.92;72.59
80712;BME280;70078;51.596;5.678;2023-07-22T05:59:31;101241.50;;;15.95;72.40
80712;BME280;70078;51.596;5.678;2023-07-22T06:01:56;101240.34;;;16.04;72.06
80712;BME280;70078;51.596;5.678;2023-07-22T06:04:21;101233.88;;;16.20;70.99
80712;BME280;70078;51.596;5.678;2023-07-22T06:06:47;101240.00;;;16.35;71.56
80712;BME280;70078;51.596;5.678;2023-07-22T06:09:12;101256.56;;;16.60;71.55
80712;BME280;70078;51.596;5.678;2023-07-22T06:11:37;101228.75;;;16.53;70.67
80712;BME280;70078;51.596;5.678;2023-07-22T06:14:03;101209.66;;;16.48;70.68
80712;BME280;70078;51.596;5.678;2023-07-22T06:16:28;101256.81;;;16.86;70.21
80712;BME280;70078;51.596;5.678;2023-07-22T06:18:53;101242.34;;;16.94;69.92
80712;BME280;70078;51.596;5.678;2023-07-22T06:21:19;101246.16;;;17.13;69.44
80712;BME280;70078;51.596;5.678;2023-07-22T06:23:44;101244.09;;;17.15;69.63
80712;BME280;70078;51.596;5.678;2023-07-22T06:26:09;101249.59;;;17.35;70.07
80712;BME280;70078;51.596;5.678;2023-07-22T06:28:35;101235.50;;;17.39;68.72
80712;BME280;70078;51.596;5.678;2023-07-22T06:31:00;101250.13;;;17.65;68.39
80712;BME280;70078;51.596;5.678;2023-07-22T06:33:25;101230.41;;;17.64;69.17
80712;BME280;70078;51.596;5.678;2023-07-22T06:35:51;101233.78;;;17.73;67.76
80712;BME280;70078;51.596;5.678;2023-07-22T06:38:16;101237.56;;;17.92;67.20
80712;BME280;70078;51.596;5.678;2023-07-22T06:40:42;101232.16;;;17.98;68.52
80712;BME280;70078;51.596;5.678;2023-07-22T06:43:07;101239.88;;;18.08;66.67
80712;BME280;70078;51.596;5.678;2023-07-22T06:45:32;101228.44;;;18.06;67.39
80712;BME280;70078;51.596;5.678;2023-07-22T06:47:58;101235.28;;;18.28;65.37
80712;BME280;70078;51.596;5.678;2023-07-22T06:50:23;101240.09;;;18.26;66.35
80712;BME280;70078;51.596;5.678;2023-07-22T06:52:49;101220.34;;;18.19;67.26
80712;BME280;70078;51.596;5.678;2023-07-22T06:55:14;101228.44;;;18.19;65.40
80712;BME280;70078;51.596;5.678;2023-07-22T06:57:40;101233.00;;;18.19;65.62
80712;BME280;70078;51.596;5.678;2023-07-22T07:00:06;101233.66;;;18.41;66.04
80712;BME280;70078;51.596;5.678;2023-07-22T07:02:31;101204.34;;;18.38;66.04
80712;BME280;70078;51.596;5.678;2023-07-22T07:04:57;101214.50;;;18.49;66.47
80712;BME280;70078;51.596;5.678;2023-07-22T07:07:22;101216.78;;;18.72;65.85
80712;BME280;70078;51.596;5.678;2023-07-22T07:09:47;101224.88;;;18.92;65.67
80712;BME280;70078;51.596;5.678;2023-07-22T07:12:13;101231.13;;;18.99;65.10
80712;BME280;70078;51.596;5.678;2023-07-22T07:14:38;101220.06;;;19.00;64.82
80712;BME280;70078;51.596;5.678;2023-07-22T07:17:03;101225.22;;;19.15;65.21
80712;BME280;70078;51.596;5.678;2023-07-22T07:19:29;101224.38;;;19.21;64.32
80712;BME280;70078;51.596;5.678;2023-07-22T07:21:54;101209.22;;;19.07;63.88
80712;BME280;70078;51.596;5.678;2023-07-22T07:24:20;101187.41;;;18.89;64.46
80712;BME280;70078;51.596;5.678;2023-07-22T07:26:45;101211.91;;;19.13;64.95
80712;BME280;70078;51.596;5.678;2023-07-22T07:29:11;101209.00;;;19.08;64.51
80712;BME280;70078;51.596;5.678;2023-07-22T07:31:39;101201.72;;;19.09;64.88
80712;BME280;70078;51.596;5.678;2023-07-22T07:34:05;101169.69;;;19.06;64.52
80712;BME280;70078;51.596;5.678;2023-07-22T07:36:32;101242.97;;;19.56;65.14
80712;BME280;70078;51.596;5.678;2023-07-22T07:38:57;101208.25;;;19.39;63.95
80712;BME280;70078;51.596;5.678;2023-07-22T07:41:23;101197.19;;;19.41;63.06
80712;BME280;70078;51.596;5.678;2023-07-22T07:43:48;101233.22;;;19.48;63.36
80712;BME280;70078;51.596;5.678;2023-07-22T07:46:29;101227.25;;;19.26;63.21
80712;BME280;70078;51.596;5.678;2023-07-22T07:48:59;101243.91;;;19.36;63.65
80712;BME280;70078;51.596;5.678;2023-07-22T07:51:26;101236.00;;;19.28;63.77
80712;BME280;70078;51.596;5.678;2023-07-22T07:53:52;101239.94;;;19.32;63.46
80712;BME280;70078;51.596;5.678;2023-07-22T07:56:18;101234.94;;;19.36;63.95
80712;BME280;70078;51.596;5.678;2023-07-22T07:58:49;101240.13;;;19.37;64.04
80712;BME280;70078;51.596;5.678;2023-07-22T08:01:15;101236.59;;;19.37;64.47
80712;BME280;70078;51.596;5.678;2023-07-22T08:03:42;101241.34;;;19.41;65.28
80712;BME280;70078;51.596;5.678;2023-07-22T08:06:08;101246.09;;;19.53;63.86
80712;BME280;70078;51.596;5.678;2023-07-22T08:08:35;101242.38;;;19.47;64.81
80712;BME280;70078;51.596;5.678;2023-07-22T08:11:21;101242.31;;;19.67;63.78
80712;BME280;70078;51.596;5.678;2023-07-22T08:13:46;101246.19;;;19.84;62.88
80712;BME280;70078;51.596;5.678;2023-07-22T08:16:13;101245.50;;;19.95;62.71
80712;BME280;70078;51.596;5.678;2023-07-22T08:18:38;101247.22;;;20.15;63.47
80712;BME280;70078;51.596;5.678;2023-07-22T08:21:05;101247.44;;;20.45;62.23
80712;BME280;70078;51.596;5.678;2023-07-22T08:23:33;101246.25;;;20.34;61.51
80712;BME280;70078;51.596;5.678;2023-07-22T08:25:59;101213.81;;;20.21;61.98
80712;BME280;70078;51.596;5.678;2023-07-22T08:28:25;101238.38;;;20.58;61.38
80712;BME280;70078;51.596;5.678;2023-07-22T08:30:50;101231.78;;;20.90;59.89
80712;BME280;70078;51.596;5.678;2023-07-22T08:33:18;101214.66;;;20.71;59.14
80712;BME280;70078;51.596;5.678;2023-07-22T08:35:44;101205.22;;;20.74;59.56
80712;BME280;70078;51.596;5.678;2023-07-22T08:38:10;101232.59;;;20.91;58.99
80712;BME280;70078;51.596;5.678;2023-07-22T08:40:37;101224.38;;;20.97;58.93
80712;BME280;70078;51.596;5.678;2023-07-22T08:43:04;101245.19;;;21.22;58.94
80712;BME280;70078;51.596;5.678;2023-07-22T08:45:32;101250.63;;;21.03;57.83
80712;BME280;70078;51.596;5.678;2023-07-22T08:48:02;101250.03;;;21.01;58.10
80712;BME280;70078;51.596;5.678;2023-07-22T08:50:35;101250.94;;;21.14;57.28
80712;BME280;70078;51.596;5.678;2023-07-22T08:53:02;101212.03;;;21.01;56.14
80712;BME280;70078;51.596;5.678;2023-07-22T08:55:28;101231.25;;;21.37;55.81
80712;BME280;70078;51.596;5.678;2023-07-22T08:57:54;101215.94;;;21.42;57.52
80712;BME280;70078;51.596;5.678;2023-07-22T09:00:21;101229.03;;;21.64;56.05
80712;BME280;70078;51.596;5.678;2023-07-22T09:02:47;101225.81;;;21.85;55.21
80712;BME280;70078;51.596;5.678;2023-07-22T09:05:13;101212.94;;;22.34;55.90
80712;BME280;70078;51.596;5.678;2023-07-22T09:07:39;101232.94;;;22.63;54.00
80712;BME280;70078;51.596;5.678;2023-07-22T09:10:06;101212.91;;;23.04;54.26
80712;BME280;70078;51.596;5.678;2023-07-22T09:12:34;101198.38;;;22.75;52.02
80712;BME280;70078;51.596;5.678;2023-07-22T09:15:10;101210.94;;;22.76;51.02
80712;BME280;70078;51.596;5.678;2023-07-22T09:17:38;101240.75;;;22.94;51.21
80712;BME280;70078;51.596;5.678;2023-07-22T09:20:04;101246.44;;;22.93;51.31
80712;BME280;70078;51.596;5.678;2023-07-22T09:22:31;101226.19;;;22.89;51.62
80712;BME280;70078;51.596;5.678;2023-07-22T09:25:13;101242.66;;;22.94;52.33
80712;BME280;70078;51.596;5.678;2023-07-22T09:27:40;101242.41;;;22.84;51.11
80712;BME280;70078;51.596;5.678;2023-07-22T09:30:29;101248.81;;;22.89;53.04
80712;BME280;70078;51.596;5.678;2023-07-22T09:32:59;101242.91;;;22.92;51.05
80712;BME280;70078;51.596;5.678;2023-07-22T09:35:27;101215.91;;;22.67;50.17
80712;BME280;70078;51.596;5.678;2023-07-22T09:37:54;101200.53;;;22.38;52.07
80712;BME280;70078;51.596;5.678;2023-07-22T09:40:25;101219.56;;;22.61;52.44
80712;BME280;70078;51.596;5.678;2023-07-22T09:42:56;101224.91;;;22.68;50.78
80712;BME280;70078;51.596;5.678;2023-07-22T09:45:23;101227.88;;;22.90;49.40
80712;BME280;70078;51.596;5.678;2023-07-22T09:47:51;101221.13;;;22.92;49.79
80712;BME280;70078;51.596;5.678;2023-07-22T09:50:22;101209.41;;;22.68;49.03
80712;BME280;70078;51.596;5.678;2023-07-22T09:52:50;101225.94;;;22.79;47.99
80712;BME280;70078;51.596;5.678;2023-07-22T09:55:17;101206.81;;;22.85;48.57
80712;BME280;70078;51.596;5.678;2023-07-22T09:57:45;101202.03;;;22.81;49.44
80712;BME280;70078;51.596;5.678;2023-07-22T10:00:12;101196.94;;;22.73;50.77
80712;BME280;70078;51.596;5.678;2023-07-22T10:02:41;101214.84;;;22.92;50.75
80712;BME280;70078;51.596;5.678;2023-07-22T10:05:12;101226.06;;;23.07;50.69
80712;BME280;70078;51.596;5.678;2023-07-22T10:07:43;101216.19;;;23.18;51.57
80712;BME280;70078;51.596;5.678;2023-07-22T10:10:10;101205.56;;;23.16;50.46
80712;BME280;70078;51.596;5.678;2023-07-22T10:12:36;101216.00;;;23.08;50.22
80712;BME280;70078;51.596;5.678;2023-07-22T10:15:04;101220.41;;;22.85;50.71
80712;BME280;70078;51.596;5.678;2023-07-22T10:17:30;101223.44;;;23.12;50.20
80712;BME280;70078;51.596;5.678;2023-07-22T10:19:56;101210.09;;;22.76;50.61
80712;BME280;70078;51.596;5.678;2023-07-22T10:22:21;101224.53;;;22.64;49.41
80712;BME280;70078;51.596;5.678;2023-07-22T10:24:47;101224.03;;;22.44;51.79
80712;BME280;70078;51.596;5.678;2023-07-22T10:27:15;101197.66;;;22.33;51.35
80712;BME280;70078;51.596;5.678;2023-07-22T10:29:43;101210.34;;;22.39;51.15
80712;BME280;70078;51.596;5.678;2023-07-22T10:32:10;101226.19;;;22.42;51.18
80712;BME280;70078;51.596;5.678;2023-07-22T10:34:35;101220.94;;;22.29;51.64
80712;BME280;70078;51.596;5.678;2023-07-22T10:37:01;101213.03;;;22.27;51.61
80712;BME280;70078;51.596;5.678;2023-07-22T10:39:28;101215.91;;;22.56;51.86
80712;BME280;70078;51.596;5.678;2023-07-22T10:42:03;101212.94;;;22.57;49.85
80712;BME280;70078;51.596;5.678;2023-07-22T10:44:36;101204.31;;;22.49;50.90
80712;BME280;70078;51.596;5.678;2023-07-22T10:47:02;101213.78;;;22.93;51.75
80712;BME280;70078;51.596;5.678;2023-07-22T10:49:43;101204.03;;;22.97;50.95
80712;BME280;70078;51.596;5.678;2023-07-22T10:52:11;101201.19;;;23.04;50.13
80712;BME280;70078;51.596;5.678;2023-07-22T10:54:37;101201.44;;;23.02;48.91
80712;BME280;70078;51.596;5.678;2023-07-22T10:57:22;101189.22;;;23.16;48.63
80712;BME280;70078;51.596;5.678;2023-07-22T10:59:49;101190.97;;;23.22;49.54
80712;BME280;70078;51.596;5.678;2023-07-22T11:02:26;101186.25;;;23.18;48.90
80712;BME280;70078;51.596;5.678;2023-07-22T11:04:51;101176.47;;;23.05;48.15
80712;BME280;70078;51.596;5.678;2023-07-22T11:07:33;101212.56;;;23.41;50.72
80712;BME280;70078;51.596;5.678;2023-07-22T11:10:12;101213.38;;;23.53;49.19
80712;BME280;70078;51.596;5.678;2023-07-22T11:12:38;101211.22;;;23.67;47.43
80712;BME280;70078;51.596;5.678;2023-07-22T11:15:05;101190.41;;;23.77;46.58
80712;BME280;70078;51.596;5.678;2023-07-22T11:17:31;101204.13;;;23.83;46.13
80712;BME280;70078;51.596;5.678;2023-07-22T11:19:59;101205.41;;;23.63;44.28
80712;BME280;70078;51.596;5.678;2023-07-22T11:22:25;101212.19;;;23.61;45.87
80712;BME280;70078;51.596;5.678;2023-07-22T11:24:51;101203.44;;;23.47;45.73
80712;BME280;70078;51.596;5.678;2023-07-22T11:27:16;101181.78;;;23.40;46.16
80712;BME280;70078;51.596;5.678;2023-07-22T11:29:42;101184.91;;;23.89;46.00
80712;BME280;70078;51.596;5.678;2023-07-22T11:32:14;101198.13;;;24.31;44.96
80712;BME280;70078;51.596;5.678;2023-07-22T11:34:43;101184.47;;;24.31;43.83
80712;BME280;70078;51.596;5.678;2023-07-22T11:37:12;101175.63;;;24.24;45.10
80712;BME280;70078;51.596;5.678;2023-07-22T11:39:38;101169.69;;;24.27;44.25
80712;BME280;70078;51.596;5.678;2023-07-22T11:42:04;101170.69;;;24.38;42.64
80712;BME280;70078;51.596;5.678;2023-07-22T11:44:31;101192.28;;;24.78;43.32
80712;BME280;70078;51.596;5.678;2023-07-22T11:47:04;101184.72;;;25.02;44.09
80712;BME280;70078;51.596;5.678;2023-07-22T11:50:03;101192.06;;;24.79;41.34
80712;BME280;70078;51.596;5.678;2023-07-22T11:52:21;101169.56;;;24.55;42.50
80712;BME280;70078;51.596;5.678;2023-07-22T11:54:47;101185.34;;;24.70;41.83
80712;BME280;70078;51.596;5.678;2023-07-22T11:59:40;101163.81;;;24.52;42.51
80712;BME280;70078;51.596;5.678;2023-07-22T12:02:12;101175.16;;;24.82;43.04
80712;BME280;70078;51.596;5.678;2023-07-22T12:04:38;101163.13;;;24.61;40.46
80712;BME280;70078;51.596;5.678;2023-07-22T12:07:04;101142.97;;;24.46;43.06
80712;BME280;70078;51.596;5.678;2023-07-22T12:09:30;101151.25;;;24.51;41.55
80712;BME280;70078;51.596;5.678;2023-07-22T12:11:59;101173.94;;;24.73;43.55
80712;BME280;70078;51.596;5.678;2023-07-22T12:14:32;101150.25;;;24.57;42.39
80712;BME280;70078;51.596;5.678;2023-07-22T12:16:58;101164.94;;;24.56;41.76
80712;BME280;70078;51.596;5.678;2023-07-22T12:19:24;101148.78;;;24.49;40.90
80712;BME280;70078;51.596;5.678;2023-07-22T12:21:52;101144.13;;;24.50;43.53
80712;BME280;70078;51.596;5.678;2023-07-22T12:24:17;101166.94;;;24.60;42.19
80712;BME280;70078;51.596;5.678;2023-07-22T12:26:42;101164.50;;;24.42;42.27
80712;BME280;70078;51.596;5.678;2023-07-22T12:29:08;101131.69;;;24.03;42.55
80712;BME280;70078;51.596;5.678;2023-07-22T12:31:33;101159.50;;;24.22;42.41
80712;BME280;70078;51.596;5.678;2023-07-22T12:33:59;101149.09;;;24.02;42.45
80712;BME280;70078;51.596;5.678;2023-07-22T12:36:24;101130.94;;;23.74;41.89
80712;BME280;70078;51.596;5.678;2023-07-22T12:38:50;101148.69;;;23.94;41.74
80712;BME280;70078;51.596;5.678;2023-07-22T12:41:15;101141.91;;;24.30;43.02
80712;BME280;70078;51.596;5.678;2023-07-22T12:43:41;101138.03;;;24.43;41.02
80712;BME280;70078;51.596;5.678;2023-07-22T12:46:06;101154.44;;;24.65;41.31
80712;BME280;70078;51.596;5.678;2023-07-22T12:48:31;101129.41;;;24.51;40.21
80712;BME280;70078;51.596;5.678;2023-07-22T12:50:57;101112.41;;;24.10;39.32